createdAt,value
2018-06-07T00:02:09.999Z,26.70
2018-06-07T00:04:37.717Z,26.70
2018-06-07T00:07:05.423Z,26.60
2018-06-07T00:09:33.132Z,26.60
2018-06-07T00:12:00.823Z,26.60
2018-06-07T00:14:28.539Z,26.60
2018-06-07T00:16:56.279Z,26.40
2018-06-07T00:19:23.950Z,26.40
2018-06-07T00:21:51.643Z,26.40
2018-06-07T00:24:19.319Z,26.30
2018-06-07T00:26:47.049Z,26.20
2018-06-07T00:29:15.660Z,26.20
2018-06-07T00:31:43.389Z,26.10
2018-06-07T00:34:11.049Z,26.10
2018-06-07T00:36:38.726Z,26.10
2018-06-07T00:39:06.951Z,26.00
2018-06-07T00:41:34.657Z,26.00
2018-06-07T00:44:02.403Z,26.00
2018-06-07T00:46:30.080Z,25.90
2018-06-07T00:48:57.856Z,25.80
2018-06-07T00:51:25.536Z,25.80
2018-06-07T00:53:53.497Z,25.80
2018-06-07T00:56:37.163Z,25.80
2018-06-07T00:59:04.959Z,26.00
2018-06-07T01:01:32.651Z,26.10
2018-06-07T01:04:00.359Z,26.00
2018-06-07T01:06:28.059Z,25.80
2018-06-07T01:08:55.791Z,25.80
2018-06-07T01:11:23.494Z,25.70
2018-06-07T01:13:51.177Z,25.70
2018-06-07T01:16:18.866Z,25.60
2018-06-07T01:18:46.581Z,25.60
2018-06-07T01:21:14.255Z,25.50
2018-06-07T01:23:41.981Z,25.60
2018-06-07T01:26:09.667Z,25.70
2018-06-07T01:28:37.349Z,25.30
2018-06-07T01:31:10.789Z,25.40
2018-06-07T01:33:44.030Z,25.40
2018-06-07T01:36:12.782Z,25.40
2018-06-07T01:38:57.737Z,25.50
2018-06-07T01:41:25.489Z,25.50
2018-06-07T01:43:53.206Z,25.40
2018-06-07T01:46:21.680Z,25.40
2018-06-07T01:48:49.372Z,25.40
2018-06-07T01:51:17.062Z,25.40
2018-06-07T01:53:44.765Z,25.40
2018-06-07T01:56:12.467Z,25.50
2018-06-07T01:58:40.192Z,25.40
2018-06-07T02:01:07.895Z,25.40
2018-06-07T02:03:35.595Z,25.30
2018-06-07T02:06:03.312Z,25.30
2018-06-07T02:10:58.682Z,25.20
2018-06-07T02:13:26.394Z,25.30
2018-06-07T02:15:54.089Z,25.20
2018-06-07T02:18:21.789Z,25.20
2018-06-07T02:20:49.487Z,25.20
2018-06-07T02:23:17.212Z,26.00
2018-06-07T02:25:44.883Z,25.20
2018-06-07T02:28:12.587Z,25.10
2018-06-07T02:30:40.291Z,25.10
2018-06-07T02:33:07.975Z,25.20
2018-06-07T02:35:35.754Z,25.20
2018-06-07T02:38:03.519Z,25.20
2018-06-07T02:40:31.189Z,25.20
2018-06-07T02:42:58.854Z,25.10
2018-06-07T02:45:26.535Z,25.10
2018-06-07T02:47:54.255Z,25.10
2018-06-07T02:52:49.692Z,25.20
2018-06-07T02:55:17.373Z,25.10
2018-06-07T02:57:45.050Z,25.00
2018-06-07T03:00:12.760Z,25.00
2018-06-07T03:05:08.280Z,25.10
2018-06-07T03:07:35.949Z,25.10
2018-06-07T03:10:03.666Z,25.10
2018-06-07T03:12:31.353Z,25.10
2018-06-07T03:14:59.123Z,25.00
2018-06-07T03:17:26.854Z,24.90
2018-06-07T03:19:54.543Z,24.90
2018-06-07T03:22:22.275Z,24.90
2018-06-07T03:24:49.983Z,24.80
2018-06-07T03:27:17.668Z,24.80
2018-06-07T03:29:45.397Z,24.80
2018-06-07T03:32:13.165Z,24.80
2018-06-07T03:34:40.885Z,24.80
2018-06-07T03:37:09.621Z,24.60
2018-06-07T03:39:37.335Z,24.40
2018-06-07T03:42:05.063Z,24.40
2018-06-07T03:44:32.788Z,24.40
2018-06-07T03:47:00.497Z,24.50
2018-06-07T03:49:28.179Z,24.60
2018-06-07T03:51:55.911Z,24.80
2018-06-07T03:54:23.597Z,24.80
2018-06-07T03:56:51.413Z,24.90
2018-06-07T03:59:19.358Z,24.90
2018-06-07T04:01:47.034Z,24.90
2018-06-07T04:04:14.782Z,24.90
2018-06-07T04:06:42.467Z,25.00
2018-06-07T04:09:10.171Z,24.90
2018-06-07T04:11:38.128Z,25.00
2018-06-07T04:14:05.940Z,25.20
2018-06-07T04:16:33.658Z,25.30
2018-06-07T04:19:01.321Z,25.20
2018-06-07T04:21:29.069Z,25.10
2018-06-07T04:23:56.754Z,24.90
2018-06-07T04:26:24.484Z,24.70
2018-06-07T04:28:52.186Z,24.80
2018-06-07T04:31:19.899Z,25.00
2018-06-07T04:33:48.798Z,25.20
2018-06-07T04:36:16.482Z,25.40
2018-06-07T04:38:44.170Z,25.40
2018-06-07T04:43:39.610Z,25.20
2018-06-07T04:46:07.420Z,25.30
2018-06-07T04:48:35.796Z,25.50
2018-06-07T04:51:03.522Z,25.60
2018-06-07T04:53:31.560Z,25.70
2018-06-07T04:55:59.649Z,25.80
2018-06-07T04:58:27.350Z,25.90
2018-06-07T05:00:55.067Z,26.00
2018-06-07T05:03:23.214Z,26.10
2018-06-07T05:05:51.849Z,26.00
2018-06-07T05:08:19.773Z,25.90
2018-06-07T05:10:47.881Z,25.90
2018-06-07T05:13:15.606Z,25.90
2018-06-07T05:15:43.341Z,26.00
2018-06-07T05:18:11.187Z,26.30
2018-06-07T05:20:38.986Z,26.40
2018-06-07T05:23:06.710Z,26.50
2018-06-07T05:25:35.359Z,26.60
2018-06-07T05:28:03.128Z,26.60
2018-06-07T05:30:30.828Z,26.70
2018-06-07T05:32:58.533Z,26.90
2018-06-07T05:35:26.310Z,26.90
2018-06-07T05:37:55.311Z,27.00
2018-06-07T05:40:23.054Z,25.80
2018-06-07T05:42:50.807Z,27.10
2018-06-07T05:45:18.557Z,27.20
2018-06-07T05:47:46.318Z,27.30
2018-06-07T05:50:14.002Z,27.20
2018-06-07T05:52:41.714Z,27.40
2018-06-07T05:55:09.427Z,27.60
2018-06-07T05:57:37.234Z,27.70
2018-06-07T06:00:05.232Z,27.70
2018-06-07T06:02:32.898Z,27.80
2018-06-07T06:05:00.775Z,27.90
2018-06-07T06:07:28.601Z,28.10
2018-06-07T06:09:56.346Z,28.20
2018-06-07T06:12:24.069Z,28.40
2018-06-07T06:14:51.744Z,28.50
2018-06-07T06:17:19.494Z,28.50
2018-06-07T06:19:47.252Z,28.60
2018-06-07T06:22:15.087Z,28.70
2018-06-07T06:24:42.843Z,28.90
2018-06-07T06:27:10.544Z,29.00
2018-06-07T06:29:38.227Z,29.00
2018-06-07T06:32:06.013Z,29.10
2018-06-07T06:34:33.727Z,29.10
2018-06-07T06:37:01.463Z,29.20
2018-06-07T06:39:29.183Z,29.70
2018-06-07T06:41:56.910Z,29.30
2018-06-07T06:44:24.830Z,29.50
2018-06-07T06:46:52.579Z,29.70
2018-06-07T06:49:20.959Z,29.70
2018-06-07T06:51:48.619Z,29.90
2018-06-07T06:54:16.364Z,30.00
2018-06-07T06:56:44.074Z,30.00
2018-06-07T06:59:11.823Z,30.10
2018-06-07T07:01:39.812Z,30.10
2018-06-07T07:04:07.568Z,30.10
2018-06-07T07:06:35.298Z,30.10
2018-06-07T07:09:05.227Z,30.20
2018-06-07T07:11:32.881Z,30.30
2018-06-07T07:14:00.655Z,30.30
2018-06-07T07:16:28.401Z,30.30
2018-06-07T07:18:56.099Z,30.40
2018-06-07T07:21:23.829Z,30.50
2018-06-07T07:23:51.890Z,30.70
2018-06-07T07:26:19.650Z,30.70
2018-06-07T07:28:47.347Z,30.80
2018-06-07T07:31:15.508Z,30.90
2018-06-07T07:33:43.269Z,30.80
2018-06-07T07:36:11.002Z,31.30
2018-06-07T07:38:38.731Z,31.70
2018-06-07T07:41:06.586Z,32.10
2018-06-07T07:43:34.728Z,32.40
2018-06-07T07:46:02.442Z,32.70
2018-06-07T07:48:30.190Z,33.00
2018-06-07T07:50:57.929Z,33.30
2018-06-07T07:53:25.779Z,33.40
2018-06-07T07:58:21.957Z,33.90
2018-06-07T08:00:51.050Z,34.30
2018-06-07T08:03:19.803Z,34.70
2018-06-07T08:05:49.121Z,34.90
2018-06-07T08:08:17.887Z,35.20
2018-06-07T08:10:45.943Z,35.50
2018-06-07T08:13:14.122Z,35.70
2018-06-07T08:15:42.757Z,36.00
2018-06-07T08:20:38.355Z,36.30
2018-06-07T08:23:06.091Z,36.50
2018-06-07T08:25:33.803Z,36.70
2018-06-07T08:28:01.603Z,36.90
2018-06-07T08:30:29.326Z,37.10
2018-06-07T08:32:57.318Z,37.20
2018-06-07T08:35:25.083Z,37.50
2018-06-07T08:37:52.861Z,37.70
2018-06-07T08:40:20.628Z,38.00
2018-06-07T08:42:48.383Z,38.30
2018-06-07T08:45:16.165Z,39.40
2018-06-07T08:50:11.699Z,39.10
2018-06-07T08:52:39.516Z,39.50
2018-06-07T08:55:07.222Z,39.70
2018-06-07T08:57:35.023Z,39.70
2018-06-07T09:00:02.907Z,39.90
2018-06-07T09:04:58.956Z,40.30
2018-06-07T09:07:26.744Z,40.40
2018-06-07T09:09:54.457Z,40.60
2018-06-07T09:12:22.237Z,40.70
2018-06-07T09:14:49.954Z,40.90
2018-06-07T09:17:17.805Z,41.10
2018-06-07T09:22:13.321Z,41.50
2018-06-07T09:24:42.305Z,41.70
2018-06-07T09:27:10.245Z,41.90
2018-06-07T09:29:38.079Z,42.20
2018-06-07T09:32:05.813Z,42.30
2018-06-07T09:34:33.665Z,42.00
2018-06-07T09:37:01.474Z,42.40
2018-06-07T09:39:29.215Z,42.40
2018-06-07T09:41:56.986Z,42.50
2018-06-07T09:44:25.381Z,42.50
2018-06-07T09:46:54.732Z,42.70
2018-06-07T09:49:22.459Z,42.50
2018-06-07T09:51:52.887Z,42.00
2018-06-07T09:54:20.586Z,42.10
2018-06-07T09:56:48.273Z,41.70
2018-06-07T09:59:15.955Z,41.60
2018-06-07T10:01:43.635Z,41.70
2018-06-07T10:04:11.589Z,41.80
2018-06-07T10:06:39.268Z,42.00
2018-06-07T10:09:07.221Z,42.50
2018-06-07T10:11:34.897Z,42.80
2018-06-07T10:14:02.670Z,43.00
2018-06-07T10:16:30.558Z,43.30
2018-06-07T10:18:59.444Z,43.60
2018-06-07T10:21:27.133Z,43.80
2018-06-07T10:24:10.204Z,43.80
2018-06-07T10:26:50.647Z,43.80
2018-06-07T10:29:36.791Z,44.10
2018-06-07T10:32:16.845Z,44.20
2018-06-07T10:37:31.705Z,44.70
2018-06-07T10:40:13.408Z,44.70
2018-06-07T10:42:46.574Z,44.50
2018-06-07T10:45:27.774Z,44.80
2018-06-07T10:50:38.407Z,44.50
2018-06-07T10:53:06.245Z,44.50
2018-06-07T10:55:35.103Z,44.60
2018-06-07T10:58:03.814Z,45.00
2018-06-07T11:00:31.684Z,45.20
2018-06-07T11:02:59.427Z,45.00
2018-06-07T11:05:27.184Z,45.20
2018-06-07T11:07:54.874Z,45.30
2018-06-07T11:10:22.583Z,45.50
2018-06-07T11:12:50.285Z,45.40
2018-06-07T11:15:18.035Z,45.20
2018-06-07T11:17:46.385Z,45.00
2018-06-07T11:20:14.086Z,45.40
2018-06-07T11:22:41.769Z,45.50
2018-06-07T11:25:09.467Z,45.60
2018-06-07T11:27:37.171Z,45.60
2018-06-07T11:32:32.655Z,45.90
2018-06-07T11:35:00.447Z,45.90
2018-06-07T11:37:28.158Z,46.00
2018-06-07T11:39:56.135Z,46.20
2018-06-07T11:44:51.869Z,46.00
2018-06-07T11:47:19.557Z,45.90
2018-06-07T11:49:47.239Z,46.20
2018-06-07T11:52:14.939Z,46.20
2018-06-07T11:54:42.874Z,46.40
2018-06-07T11:57:10.554Z,46.40
2018-06-07T11:59:38.251Z,46.50
2018-06-07T12:02:05.943Z,46.70
2018-06-07T12:04:33.643Z,46.90
2018-06-07T12:07:01.306Z,47.10
2018-06-07T12:09:29.482Z,47.40
2018-06-07T12:11:57.343Z,47.30
2018-06-07T12:16:52.831Z,47.50
2018-06-07T12:19:20.541Z,47.50
2018-06-07T12:21:48.207Z,47.40
2018-06-07T12:24:15.867Z,47.50
2018-06-07T12:26:43.530Z,47.50
2018-06-07T12:29:11.211Z,47.30
2018-06-07T12:31:38.875Z,47.20
2018-06-07T12:34:06.580Z,47.30
2018-06-07T12:36:34.265Z,46.90
2018-06-07T12:39:02.512Z,46.70
2018-06-07T12:41:30.257Z,46.90
2018-06-07T12:46:25.612Z,47.30
2018-06-07T12:48:53.309Z,47.40
2018-06-07T12:51:20.981Z,47.40
2018-06-07T12:53:48.646Z,47.40
2018-06-07T12:56:16.331Z,47.00
2018-06-07T12:58:44.035Z,47.00
2018-06-07T13:01:11.714Z,47.20
2018-06-07T13:03:39.448Z,47.30
2018-06-07T13:06:07.109Z,47.20
2018-06-07T13:08:36.083Z,47.50
2018-06-07T13:11:03.896Z,47.40
2018-06-07T13:13:31.578Z,47.30
2018-06-07T13:15:59.775Z,47.20
2018-06-07T13:18:27.427Z,47.50
2018-06-07T13:20:55.079Z,47.70
2018-06-07T13:23:24.288Z,47.80
2018-06-07T13:28:19.813Z,47.70
2018-06-07T13:30:47.486Z,47.70
2018-06-07T13:33:15.197Z,47.70
2018-06-07T13:35:42.854Z,48.00
2018-06-07T13:38:10.521Z,48.00
2018-06-07T13:40:38.189Z,48.20
2018-06-07T13:43:05.892Z,48.40
2018-06-07T13:45:33.598Z,48.40
2018-06-07T13:48:01.267Z,48.30
2018-06-07T13:50:29.023Z,48.30
2018-06-07T13:52:56.958Z,48.50
2018-06-07T13:55:24.910Z,48.50
2018-06-07T13:57:52.629Z,48.50
2018-06-07T14:00:21.166Z,48.40
2018-06-07T14:02:48.875Z,48.30
2018-06-07T14:05:16.566Z,48.20
2018-06-07T14:07:44.282Z,48.20
2018-06-07T14:10:11.998Z,48.00
2018-06-07T14:12:39.709Z,48.40
2018-06-07T14:15:07.417Z,48.60
2018-06-07T14:17:35.117Z,48.40
2018-06-07T14:20:02.891Z,48.50
2018-06-07T14:22:30.589Z,48.60
2018-06-07T14:24:58.249Z,48.60
2018-06-07T14:27:26.139Z,48.50
2018-06-07T14:29:53.804Z,48.40
2018-06-07T14:32:21.464Z,48.70
2018-06-07T14:34:49.160Z,48.70
2018-06-07T14:37:16.893Z,48.40
2018-06-07T14:39:44.579Z,48.40
2018-06-07T14:42:12.287Z,48.50
2018-06-07T14:44:39.944Z,48.70
2018-06-07T14:47:08.388Z,48.80
2018-06-07T14:49:36.083Z,49.00
2018-06-07T14:52:03.883Z,49.10
2018-06-07T14:54:31.561Z,49.20
2018-06-07T14:56:59.985Z,49.30
2018-06-07T14:59:27.649Z,49.20
2018-06-07T15:01:55.309Z,49.20
2018-06-07T15:04:22.993Z,48.90
2018-06-07T15:06:50.676Z,48.80
2018-06-07T15:09:18.390Z,49.10
2018-06-07T15:11:46.422Z,48.90
2018-06-07T15:14:14.300Z,49.10
2018-06-07T15:16:42.192Z,49.10
2018-06-07T15:19:09.953Z,49.00
2018-06-07T15:21:38.519Z,48.70
2018-06-07T15:24:07.143Z,48.60
2018-06-07T15:26:35.017Z,48.40
2018-06-07T15:29:02.840Z,48.20
2018-06-07T15:31:30.523Z,47.50
2018-06-07T15:33:58.211Z,47.60
2018-06-07T15:36:25.910Z,47.30
2018-06-07T15:38:53.669Z,47.30
2018-06-07T15:41:21.583Z,47.30
2018-06-07T15:46:17.019Z,47.30
2018-06-07T15:48:44.680Z,47.20
2018-06-07T15:51:12.353Z,47.20
2018-06-07T15:53:40.235Z,47.10
2018-06-07T15:58:35.645Z,46.50
2018-06-07T16:01:03.331Z,46.10
2018-06-07T16:03:31.074Z,46.00
2018-06-07T16:05:58.798Z,45.70
2018-06-07T16:08:27.333Z,45.10
2018-06-07T16:10:55.003Z,44.60
2018-06-07T16:13:22.665Z,44.30
2018-06-07T16:15:50.350Z,44.00
2018-06-07T16:18:18.023Z,43.70
2018-06-07T16:20:45.943Z,43.50
2018-06-07T16:23:13.639Z,43.30
2018-06-07T16:25:41.467Z,43.10
2018-06-07T16:28:09.247Z,42.80
2018-06-07T16:30:37.024Z,42.50
2018-06-07T16:33:04.731Z,42.10
2018-06-07T16:35:32.432Z,41.40
2018-06-07T16:38:00.119Z,41.00
2018-06-07T16:40:27.815Z,40.90
2018-06-07T16:42:55.524Z,40.90
2018-06-07T16:45:23.218Z,41.00
2018-06-07T16:47:50.936Z,40.90
2018-06-07T16:50:18.654Z,40.70
2018-06-07T16:52:46.368Z,40.50
2018-06-07T16:55:14.030Z,40.20
2018-06-07T16:57:41.771Z,40.10
2018-06-07T17:00:09.449Z,40.00
2018-06-07T17:02:37.125Z,39.80
2018-06-07T17:05:04.989Z,39.80
2018-06-07T17:07:32.843Z,39.60
2018-06-07T17:10:00.752Z,39.50
2018-06-07T17:12:28.498Z,39.20
2018-06-07T17:14:56.283Z,39.20
2018-06-07T17:17:24.008Z,39.50
2018-06-07T17:19:52.413Z,38.60
2018-06-07T17:22:20.173Z,38.60
2018-06-07T17:24:48.003Z,38.40
2018-06-07T17:27:15.735Z,38.50
2018-06-07T17:29:43.471Z,38.40
2018-06-07T17:32:11.219Z,38.20
2018-06-07T17:34:38.951Z,38.10
2018-06-07T17:37:06.702Z,37.90
2018-06-07T17:39:34.448Z,37.70
2018-06-07T17:42:02.233Z,37.10
2018-06-07T17:44:29.967Z,37.30
2018-06-07T17:46:57.658Z,37.10
2018-06-07T17:49:25.382Z,37.00
2018-06-07T17:51:53.105Z,36.80
2018-06-07T17:54:20.832Z,36.80
2018-06-07T17:56:48.578Z,36.90
2018-06-07T17:59:16.384Z,36.80
2018-06-07T18:01:44.229Z,36.80
2018-06-07T18:04:11.933Z,37.00
2018-06-07T18:06:39.641Z,37.10
2018-06-07T18:09:08.263Z,37.00
2018-06-07T18:11:35.930Z,37.00
2018-06-07T18:14:03.802Z,36.90
2018-06-07T18:16:31.616Z,37.00
2018-06-07T18:18:59.333Z,36.70
2018-06-07T18:21:27.021Z,36.40
2018-06-07T18:23:54.726Z,36.60
2018-06-07T18:26:22.463Z,36.70
2018-06-07T18:28:50.208Z,36.40
2018-06-07T18:31:18.616Z,36.70
2018-06-07T18:33:46.399Z,36.50
2018-06-07T18:36:14.766Z,36.40
2018-06-07T18:38:42.547Z,36.40
2018-06-07T18:41:10.269Z,37.80
2018-06-07T18:43:38.005Z,36.40
2018-06-07T18:46:05.862Z,36.50
2018-06-07T18:48:34.399Z,36.30
2018-06-07T18:51:02.269Z,36.40
2018-06-07T18:53:31.979Z,36.20
2018-06-07T18:55:59.764Z,36.20
2018-06-07T18:58:27.458Z,36.20
2018-06-07T19:00:55.234Z,35.90
2018-06-07T19:03:22.926Z,35.70
2018-06-07T19:08:18.477Z,35.70
2018-06-07T19:13:19.644Z,35.50
2018-06-07T19:15:47.343Z,35.50
2018-06-07T19:18:15.640Z,35.40
2018-06-07T19:20:50.728Z,35.50
2018-06-07T19:23:18.743Z,35.30
2018-06-07T19:25:52.452Z,35.30
2018-06-07T19:28:21.831Z,35.20
2018-06-07T19:30:49.948Z,35.20
2018-06-07T19:33:24.526Z,35.10
2018-06-07T19:35:52.371Z,35.00
2018-06-07T19:38:20.135Z,34.80
2018-06-07T19:40:54.638Z,34.80
2018-06-07T19:43:24.307Z,34.70
2018-06-07T19:45:52.034Z,34.60
2018-06-07T19:48:19.748Z,34.60
2018-06-07T19:50:48.019Z,34.50
2018-06-07T19:53:18.554Z,34.50
2018-06-07T19:55:46.728Z,34.40
2018-06-07T19:58:14.424Z,34.20
2018-06-07T20:00:43.650Z,34.10
2018-06-07T20:03:11.375Z,33.90
2018-06-07T20:08:06.909Z,33.40
2018-06-07T20:10:34.561Z,33.20
2018-06-07T20:13:02.348Z,33.00
2018-06-07T20:15:34.635Z,33.10
2018-06-07T20:18:02.459Z,33.30
2018-06-07T20:20:30.195Z,33.30
2018-06-07T20:22:58.025Z,33.30
2018-06-07T20:25:25.747Z,33.30
2018-06-07T20:27:53.534Z,33.30
2018-06-07T20:32:49.236Z,33.10
2018-06-07T20:35:17.197Z,33.00
2018-06-07T20:37:45.926Z,32.70
2018-06-07T20:40:14.062Z,32.60
2018-06-07T20:45:10.546Z,32.40
2018-06-07T20:47:39.214Z,32.40
2018-06-07T20:50:07.067Z,32.30
2018-06-07T20:52:35.726Z,32.10
2018-06-07T20:57:31.378Z,32.00
2018-06-07T20:59:59.111Z,32.10
2018-06-07T21:02:26.861Z,32.20
2018-06-07T21:04:54.630Z,32.50
2018-06-07T21:07:22.385Z,32.50
2018-06-07T21:09:50.067Z,32.50
2018-06-07T21:12:18.513Z,32.50
2018-06-07T21:14:46.208Z,32.20
2018-06-07T21:17:14.193Z,32.00
2018-06-07T21:19:41.941Z,32.00
2018-06-07T21:22:09.699Z,31.90
2018-06-07T21:24:37.447Z,31.80
2018-06-07T21:27:05.454Z,31.70
2018-06-07T21:29:34.531Z,31.70
2018-06-07T21:32:03.372Z,31.70
2018-06-07T21:34:31.070Z,31.80
2018-06-07T21:36:58.766Z,31.80
2018-06-07T21:39:26.495Z,31.90
2018-06-07T21:41:54.194Z,31.90
2018-06-07T21:44:21.947Z,31.90
2018-06-07T21:46:49.829Z,31.70
2018-06-07T21:49:17.990Z,31.50
2018-06-07T21:51:46.048Z,31.50
2018-06-07T21:54:13.778Z,31.30
2018-06-07T21:56:41.503Z,31.30
2018-06-07T21:59:09.179Z,31.30
2018-06-07T22:01:36.921Z,31.30
2018-06-07T22:04:05.012Z,31.40
2018-06-07T22:06:32.784Z,31.50
2018-06-07T22:09:00.808Z,31.50
2018-06-07T22:11:28.530Z,31.50
2018-06-07T22:13:56.236Z,31.50
2018-06-07T22:16:24.272Z,31.40
2018-06-07T22:18:52.026Z,31.40
2018-06-07T22:21:19.676Z,31.30
2018-06-07T22:23:47.369Z,31.20
2018-06-07T22:26:15.063Z,31.20
2018-06-07T22:28:42.721Z,31.10
2018-06-07T22:33:38.166Z,31.10
2018-06-07T22:36:05.919Z,31.20
2018-06-07T22:38:33.609Z,31.20
2018-06-07T22:41:01.349Z,31.20
2018-06-07T22:43:29.427Z,30.90
2018-06-07T22:45:57.081Z,31.00
2018-06-07T22:48:24.761Z,31.00
2018-06-07T22:50:52.463Z,31.10
2018-06-07T22:53:20.141Z,31.00
2018-06-07T22:55:47.868Z,31.10
2018-06-07T22:58:15.554Z,31.10
2018-06-07T23:00:43.263Z,31.10
2018-06-07T23:03:11.420Z,31.00
2018-06-07T23:05:39.121Z,31.10
2018-06-07T23:08:06.864Z,30.90
2018-06-07T23:10:34.554Z,31.10
2018-06-07T23:13:02.272Z,31.20
2018-06-07T23:15:30.033Z,31.30
2018-06-07T23:17:57.741Z,31.40
2018-06-07T23:20:25.459Z,31.50
2018-06-07T23:22:53.170Z,31.60
2018-06-07T23:25:20.874Z,31.70
2018-06-07T23:27:48.555Z,31.60
2018-06-07T23:30:16.299Z,31.50
2018-06-07T23:32:43.991Z,31.30
2018-06-07T23:35:11.705Z,31.30
2018-06-07T23:37:39.400Z,33.40
2018-06-07T23:40:07.094Z,31.50
2018-06-07T23:42:34.824Z,31.40
2018-06-07T23:45:03.867Z,31.50
2018-06-07T23:47:31.576Z,31.30
2018-06-07T23:49:59.261Z,31.30
2018-06-07T23:52:26.991Z,31.40
2018-06-07T23:54:54.716Z,31.50
2018-06-07T23:57:22.422Z,31.50
2018-06-07T23:59:50.141Z,31.60
